Time;durP1;ratioP1;P1;durP2;ratioP2;P2;SDS_P1;SDS_P2;PMS_P1;PMS_P2;Temp;Humidity;BMP_temperature;BMP_pressure;BME280_temperature;BME280_humidity;BME280_pressure;Samples;Min_cycle;Max_cycle;Signal;HPM_P1;HPM_P2
2022/09/27 00:00:05;;;;;;;6.08;5.58;;;;;;;11.95;100.00;99300.72;1606901;88;21051;-77
2022/09/27 00:02:33;;;;;;;7.53;6.53;;;;;;;11.94;100.00;99302.28;1671517;84;21109;-73
2022/09/27 00:04:59;;;;;;;7.92;7.22;;;;;;;11.91;100.00;99307.55;1656603;84;21186;-74
2022/09/27 00:07:25;;;;;;;6.85;6.25;;;;;;;11.90;100.00;99297.90;1673051;84;21620;-74
2022/09/27 00:09:51;;;;;;;8.15;6.30;;;;;;;11.89;100.00;99301.59;1670203;84;21084;-74
2022/09/27 00:12:17;;;;;;;7.85;6.47;;;;;;;11.90;100.00;99298.42;1656159;84;21516;-73
2022/09/27 00:14:45;;;;;;;7.45;6.83;;;;;;;11.91;100.00;99299.55;1599439;88;21132;-72
2022/09/27 00:17:11;;;;;;;6.67;6.17;;;;;;;11.90;100.00;99295.75;1640467;86;21577;-73
2022/09/27 00:22:44;;;;;;;9.08;7.35;;;;;;;11.94;100.00;99284.92;1829929;76;22886;-73
2022/09/27 00:25:11;;;;;;;8.90;7.50;;;;;;;11.87;100.00;99285.79;1802171;77;21044;-72
2022/09/27 00:27:38;;;;;;;8.00;6.58;;;;;;;11.86;100.00;99288.67;1765910;79;21545;-73
2022/09/27 00:30:05;;;;;;;7.12;6.50;;;;;;;11.85;100.00;99280.39;1735587;80;21031;-73
2022/09/27 00:32:32;;;;;;;7.45;6.78;;;;;;;11.82;100.00;99274.14;1750307;80;20989;-73
2022/09/27 00:34:58;;;;;;;8.35;6.80;;;;;;;11.78;100.00;99272.43;1765464;80;20979;-77
2022/09/27 00:37:24;;;;;;;;;;;;;;;11.76;100.00;99269.17;1754015;79;21473;-73
2022/09/27 00:39:50;;;;;;;7.35;6.75;;;;;;;11.74;100.00;99267.77;1752315;80;20089;-75
2022/09/27 00:42:16;;;;;;;7.95;7.22;;;;;;;11.69;100.00;99271.09;1772397;79;21505;-73
2022/09/27 00:44:57;;;;;;;8.60;7.80;;;;;;;11.69;100.00;99260.41;1774252;79;21523;-73
2022/09/27 00:47:32;;;;;;;7.40;6.65;;;;;;;11.74;100.00;99258.43;1761873;81;21025;-73
2022/09/27 00:50:22;;;;;;;7.97;7.37;;;;;;;11.77;100.00;99242.78;1750304;80;21606;-74
2022/09/27 00:53:18;;;;;;;7.05;6.45;;;;;;;11.78;100.00;99245.73;1755382;79;21038;-72
2022/09/27 00:55:53;;;;;;;9.08;8.18;;;;;;;11.79;100.00;99242.04;1765900;79;21041;-72
2022/09/27 00:58:28;;;;;;;8.70;8.00;;;;;;;11.76;100.00;99233.13;1741314;81;20974;-75
2022/09/27 01:01:00;;;;;;;9.58;8.75;;;;;;;11.75;100.00;99243.50;1738372;80;21575;-73
2022/09/27 01:03:44;;;;;;;9.43;8.60;;;;;;;11.80;100.00;99244.19;1760582;80;21077;-72
2022/09/27 01:06:11;;;;;;;9.35;8.38;;;;;;;11.83;100.00;99227.73;1764600;79;21498;-73
2022/09/27 01:08:38;;;;;;;8.98;8.08;;;;;;;11.87;100.00;99219.03;1769902;80;21014;-73
2022/09/27 01:11:09;;;;;;;11.95;7.85;;;;;;;11.88;100.00;99220.67;1766125;79;21488;-72
2022/09/27 01:14:00;;;;;;;7.85;7.12;;;;;;;11.85;100.00;99226.45;1760679;80;21032;-77
2022/09/27 01:17:17;;;;;;;8.05;7.42;;;;;;;11.86;100.00;99228.07;1756561;79;21538;-77
2022/09/27 01:20:18;;;;;;;9.35;7.90;;;;;;;11.88;100.00;99214.00;1724219;79;21518;-73
2022/09/27 01:23:30;;;;;;;9.73;7.33;;;;;;;11.83;100.00;99205.84;1777753;79;21023;-74
2022/09/27 01:26:32;;;;;;;9.80;8.40;;;;;;;11.73;100.00;99207.40;1756888;80;21069;-73
2022/09/27 01:29:04;;;;;;;8.80;7.87;;;;;;;11.64;100.00;99201.03;1759310;80;21422;-73
2022/09/27 01:31:36;;;;;;;9.65;8.85;;;;;;;11.64;100.00;99201.53;1767852;80;21522;-72
2022/09/27 01:34:17;;;;;;;8.35;7.65;;;;;;;11.66;100.00;99200.82;1705611;81;20963;-73
2022/09/27 01:37:13;;;;;;;9.13;8.33;;;;;;;11.67;100.00;99191.76;1766955;79;21462;-73
2022/09/27 01:40:05;;;;;;;10.23;9.10;;;;;;;11.68;100.00;99186.73;1797060;79;21508;-73
2022/09/27 01:42:57;;;;;;;8.93;8.13;;;;;;;11.65;100.00;99179.16;1790395;79;21037;-70
2022/09/27 01:45:48;;;;;;;12.75;11.55;;;;;;;11.62;100.00;99187.59;1761362;79;21243;-76
2022/09/27 01:48:23;;;;;;;11.20;9.98;;;;;;;11.61;100.00;99183.31;1737017;81;21063;-73
2022/09/27 01:51:03;;;;;;;11.38;10.28;;;;;;;11.66;100.00;99191.48;1731736;81;20991;-73
2022/09/27 01:53:37;;;;;;;10.23;9.33;;;;;;;11.71;100.00;99182.78;1737317;81;21612;-73
2022/09/27 01:56:19;;;;;;;9.88;8.83;;;;;;;11.73;100.00;99175.37;1723007;81;20983;-75
2022/09/27 01:59:10;;;;;;;9.58;8.78;;;;;;;11.74;100.00;99170.34;1720638;81;21498;-72
2022/09/27 02:01:43;;;;;;;11.10;10.10;;;;;;;11.76;100.00;99169.06;1726648;81;21039;-75
2022/09/27 02:04:12;;;;;;;11.10;10.05;;;;;;;11.73;100.00;99166.83;1732080;81;21062;-76
2022/09/27 02:06:44;;;;;;;10.75;9.75;;;;;;;11.37;100.00;99103.64;1728181;81;21016;-72
2022/09/27 02:09:24;;;;;;;11.28;10.18;;;;;;;11.66;100.00;99154.91;1709034;81;21030;-73
2022/09/27 02:11:57;;;;;;;12.45;11.08;;;;;;;11.63;100.00;99158.55;1728557;81;21073;-72
2022/09/27 02:14:41;;;;;;;11.55;10.38;;;;;;;11.58;100.00;99165.07;1711732;81;21560;-73
2022/09/27 02:17:46;;;;;;;12.17;10.97;;;;;;;11.55;100.00;99162.34;1724756;81;21507;-72
2022/09/27 02:20:34;;;;;;;12.43;11.22;;;;;;;11.56;100.00;99157.81;1718622;81;20996;-73
2022/09/27 02:23:30;;;;;;;15.93;11.25;;;;;;;11.56;100.00;99155.14;1728636;81;21084;-73
2022/09/27 02:26:05;;;;;;;;;;;;;;;11.53;100.00;99155.58;1728553;81;21131;-76
2022/09/27 02:28:52;;;;;;;11.90;10.67;;;;;;;11.47;100.00;99151.45;1734582;80;20138;-73
2022/09/27 02:31:20;;;;;;;14.17;12.67;;;;;;;11.40;100.00;99154.70;1759338;80;20989;-73
2022/09/27 02:34:04;;;;;;;14.15;12.28;;;;;;;11.40;100.00;99148.03;1766076;79;21524;-75
2022/09/27 02:36:30;;;;;;;13.60;11.95;;;;;;;11.41;100.00;99145.64;1764720;79;21076;-72
2022/09/27 02:39:00;;;;;;;15.83;12.55;;;;;;;11.43;100.00;99143.60;1741148;79;21018;-74
2022/09/27 02:41:26;;;;;;;13.40;12.10;;;;;;;11.47;100.00;99139.94;1755171;80;21068;-73
2022/09/27 02:44:01;;;;;;;14.30;10.95;;;;;;;11.52;100.00;99129.95;1744652;81;20985;-73
2022/09/27 02:47:14;;;;;;;14.47;12.00;;;;;;;11.56;100.00;99132.45;1723766;81;20997;-73
2022/09/27 02:49:49;;;;;;;12.60;11.28;;;;;;;11.62;100.00;99135.55;1742060;81;21034;-78
2022/09/27 02:52:37;;;;;;;13.72;12.30;;;;;;;11.66;100.00;99134.09;1744542;81;21138;-73
2022/09/27 02:55:39;;;;;;;12.30;11.08;;;;;;;11.69;100.00;99125.09;1740287;81;21495;-73
2022/09/27 02:58:43;;;;;;;18.60;12.33;;;;;;;11.75;100.00;99123.90;1766140;80;21045;-74
2022/09/27 03:01:50;;;;;;;14.83;12.93;;;;;;;11.78;100.00;99121.59;1756733;80;21060;-73
2022/09/27 03:04:33;;;;;;;13.98;11.95;;;;;;;11.81;100.00;99119.82;1753578;80;21528;-73
2022/09/27 03:07:00;;;;;;;13.35;12.15;;;;;;;11.84;100.00;99106.00;1781188;79;21039;-73
2022/09/27 03:09:30;;;;;;;12.65;11.43;;;;;;;11.87;100.00;99112.23;1742921;80;21125;-73
2022/09/27 03:11:58;;;;;;;12.65;11.55;;;;;;;11.88;100.00;99113.88;1721300;81;20975;-72
2022/09/27 03:14:25;;;;;;;15.38;12.10;;;;;;;11.90;100.00;99112.32;1760906;80;21002;-74
2022/09/27 03:17:06;;;;;;;12.90;11.53;;;;;;;11.92;100.00;99113.44;1751364;79;21010;-73
2022/09/27 03:19:44;;;;;;;12.88;11.68;;;;;;;11.94;100.00;99116.69;1751690;80;21035;-73
2022/09/27 03:22:30;;;;;;;14.85;13.25;;;;;;;11.93;100.00;99109.73;1756333;80;21007;-72
2022/09/27 03:24:57;;;;;;;;;;;;;;;11.90;100.00;99101.64;1761051;80;20967;-74
2022/09/27 03:27:24;;;;;;;17.02;14.07;;;;;;;11.90;100.00;99104.84;1759055;80;20163;-72
2022/09/27 03:29:50;;;;;;;15.08;12.25;;;;;;;11.85;100.00;99094.30;1748364;80;21468;-72
2022/09/27 03:32:17;;;;;;;14.15;12.80;;;;;;;11.88;100.00;99101.86;1713449;81;21704;-74
2022/09/27 03:34:47;;;;;;;13.75;12.45;;;;;;;11.91;100.00;99103.28;1758357;80;21081;-73
2022/09/27 03:37:14;;;;;;;13.75;12.55;;;;;;;11.93;100.00;99107.06;1734334;79;20994;-72
2022/09/27 03:39:40;;;;;;;13.80;12.50;;;;;;;11.93;100.00;99098.52;1769962;80;21430;-72
2022/09/27 03:42:06;;;;;;;13.72;12.53;;;;;;;11.93;100.00;99089.18;1770188;79;21602;-72
2022/09/27 03:44:32;;;;;;;14.55;13.08;;;;;;;11.94;100.00;99092.66;1772442;77;21033;-73
2022/09/27 03:46:59;;;;;;;14.60;12.25;;;;;;;11.94;100.00;99093.98;1737215;81;20985;-72
2022/09/27 03:49:25;;;;;;;15.23;13.72;;;;;;;11.94;100.00;99091.32;1743718;81;21106;-71
2022/09/27 03:51:52;;;;;;;15.35;12.28;;;;;;;11.95;100.00;99093.77;1715757;82;21503;-72
2022/09/27 03:54:19;;;;;;;13.45;12.23;;;;;;;11.97;100.00;99086.87;1734458;81;20947;-70
2022/09/27 03:56:45;;;;;;;13.85;12.55;;;;;;;11.98;100.00;99096.49;1741068;81;21012;-72
2022/09/27 03:59:11;;;;;;;14.65;13.38;;;;;;;11.97;100.00;99094.35;1710817;82;21000;-71
2022/09/27 04:01:39;;;;;;;14.80;13.30;;;;;;;11.98;100.00;99083.14;1743685;81;21032;-71
2022/09/27 04:04:07;;;;;;;15.30;13.80;;;;;;;11.98;100.00;99085.31;1723217;79;21043;-73
2022/09/27 04:06:33;;;;;;;13.18;11.97;;;;;;;12.00;100.00;99093.10;1764717;79;21036;-71
2022/09/27 04:09:01;;;;;;;15.48;12.90;;;;;;;12.03;100.00;99097.97;1766726;79;21008;-74
2022/09/27 04:11:28;;;;;;;13.98;12.58;;;;;;;12.01;100.00;99096.86;1740414;81;20985;-72
2022/09/27 04:13:55;;;;;;;15.03;13.55;;;;;;;11.98;100.00;99096.00;1755956;80;20985;-72
2022/09/27 04:16:23;;;;;;;15.35;13.75;;;;;;;11.95;100.00;99103.64;1731986;79;21005;-72
2022/09/27 04:18:51;;;;;;;15.53;13.93;;;;;;;11.90;100.00;99096.83;1773642;80;21011;-73
2022/09/27 04:21:25;;;;;;;14.70;13.30;;;;;;;11.91;100.00;99094.47;1736562;80;21025;-74
2022/09/27 04:23:52;;;;;;;14.33;12.88;;;;;;;11.91;100.00;99091.27;1779225;78;21056;-71
2022/09/27 04:26:19;;;;;;;15.30;13.70;;;;;;;11.91;100.00;99089.13;1783557;79;20980;-73
2022/09/27 04:28:53;;;;;;;16.65;13.53;;;;;;;11.90;100.00;99086.95;1779913;78;20965;-71
2022/09/27 04:31:19;;;;;;;17.50;14.80;;;;;;;11.88;100.00;99083.17;1751803;80;21012;-72
2022/09/27 04:33:47;;;;;;;16.12;14.63;;;;;;;11.85;100.00;99086.28;1788215;78;21064;-73
2022/09/27 04:36:25;;;;;;;16.40;14.80;;;;;;;11.82;100.00;99087.25;1773447;76;20961;-80
2022/09/27 04:39:03;;;;;;;16.57;13.70;;;;;;;11.78;100.00;99086.08;1777639;78;21016;-77
2022/09/27 04:41:30;;;;;;;15.53;13.85;;;;;;;11.74;100.00;99074.23;1782854;78;21028;-76
2022/09/27 04:44:00;;;;;;;16.30;14.73;;;;;;;11.74;100.00;99075.05;1782804;78;21602;-75
2022/09/27 04:46:30;;;;;;;17.10;13.85;;;;;;;11.77;100.00;99073.27;1778092;78;21287;-75
2022/09/27 04:48:58;;;;;;;20.43;15.55;;;;;;;11.78;100.00;99064.20;1776891;78;21039;-78
2022/09/27 04:51:24;;;;;;;18.52;16.17;;;;;;;11.80;100.00;99058.64;1752687;79;20972;-77
2022/09/27 04:53:51;;;;;;;16.55;14.47;;;;;;;11.84;100.00;99058.47;1779450;78;20981;-76
2022/09/27 04:56:17;;;;;;;19.92;16.15;;;;;;;11.87;100.00;99056.16;1770610;78;21070;-78
2022/09/27 04:58:44;;;;;;;16.30;14.70;;;;;;;11.90;100.00;99056.25;1722940;82;21063;-79
2022/09/27 05:01:11;;;;;;;21.00;15.40;;;;;;;11.93;100.00;99052.33;1746569;80;21585;-77
2022/09/27 05:03:41;;;;;;;19.00;15.15;;;;;;;11.95;100.00;99052.91;1757243;81;21021;-79
2022/09/27 05:06:12;;;;;;;18.52;16.65;;;;;;;11.99;100.00;99050.07;1743127;81;21007;-77
2022/09/27 05:08:39;;;;;;;17.75;15.20;;;;;;;12.03;100.00;99040.55;1747311;80;20993;-77
2022/09/27 05:11:15;;;;;;;17.95;16.15;;;;;;;12.05;100.00;99037.96;1745620;80;21528;-83
2022/09/27 05:13:44;;;;;;;20.00;15.78;;;;;;;12.05;100.00;99035.79;1755041;80;21008;-81
2022/09/27 05:16:10;;;;;;;21.12;15.48;;;;;;;12.06;100.00;99036.09;1747971;80;21051;-77
2022/09/27 05:18:41;;;;;;;19.15;16.00;;;;;;;12.09;100.00;99034.28;1722896;80;21021;-80
2022/09/27 05:21:18;;;;;;;22.50;16.60;;;;;;;12.12;100.00;99030.36;1731947;80;21057;-76
2022/09/27 05:23:45;;;;;;;19.85;14.55;;;;;;;12.17;100.00;99034.50;1751510;80;21513;-80
2022/09/27 05:26:12;;;;;;;16.37;14.78;;;;;;;12.21;100.00;99037.80;1798447;78;21047;-75
2022/09/27 05:28:41;;;;;;;18.57;16.15;;;;;;;12.24;100.00;99045.36;1785189;79;21044;-79
2022/09/27 05:31:06;;;;;;;19.17;16.32;;;;;;;12.24;100.00;99042.69;1785861;79;20985;-77
2022/09/27 05:33:33;;;;;;;20.70;15.50;;;;;;;12.26;100.00;99039.77;1775629;80;21026;-76
2022/09/27 05:36:07;;;;;;;18.50;15.45;;;;;;;12.30;100.00;99046.80;1759442;80;21631;-77
2022/09/27 05:38:35;;;;;;;15.68;14.03;;;;;;;12.35;100.00;99042.92;1736134;81;21123;-77
2022/09/27 05:41:04;;;;;;;17.35;15.50;;;;;;;12.39;100.00;99044.08;1749973;80;21002;-77
2022/09/27 05:43:35;;;;;;;20.60;16.05;;;;;;;12.44;100.00;99049.02;1735866;81;21031;-76
2022/09/27 05:46:01;;;;;;;29.35;24.63;;;;;;;12.42;100.00;99048.97;1773858;79;21069;-77
2022/09/27 05:48:29;;;;;;;16.70;15.18;;;;;;;12.38;100.00;99054.48;1785688;79;22277;-76
2022/09/27 05:50:57;;;;;;;18.57;16.07;;;;;;;12.38;100.00;99051.28;1793380;79;20990;-77
2022/09/27 05:53:23;;;;;;;17.95;16.00;;;;;;;12.40;100.00;99054.53;1763953;80;20961;-76
2022/09/27 05:55:49;;;;;;;17.07;15.50;;;;;;;12.44;100.00;99054.36;1761195;80;21012;-76
2022/09/27 05:58:16;;;;;;;15.95;14.43;;;;;;;12.48;100.00;99050.70;1797394;79;21063;-77
2022/09/27 06:00:48;;;;;;;16.40;14.80;;;;;;;12.52;100.00;99051.86;1802589;78;21517;-78
2022/09/27 06:03:18;;;;;;;17.12;15.53;;;;;;;12.55;100.00;99050.07;1780932;78;21079;-75
2022/09/27 06:05:54;;;;;;;15.45;14.03;;;;;;;12.57;100.00;99049.31;1800363;78;20992;-78
2022/09/27 06:08:37;;;;;;;16.48;14.85;;;;;;;12.56;100.00;99045.00;1784203;78;21003;-77
2022/09/27 06:11:09;;;;;;;15.05;13.70;;;;;;;12.56;100.00;99046.34;1776375;79;21021;-79
2022/09/27 06:13:36;;;;;;;16.73;15.03;;;;;;;12.60;100.00;99050.70;1741372;80;21091;-80
2022/09/27 06:16:02;;;;;;;;;;;;;;;12.60;100.00;99048.86;1777201;80;21600;-76
2022/09/27 06:18:29;;;;;;;17.60;15.83;;;;;;;12.62;100.00;99048.60;1741562;80;20172;-77
2022/09/27 06:21:01;;;;;;;16.75;15.20;;;;;;;12.60;100.00;99046.19;1736583;81;21139;-78
2022/09/27 06:23:27;;;;;;;17.17;15.08;;;;;;;12.64;100.00;99041.99;1745572;81;21095;-74
2022/09/27 06:26:02;;;;;;;16.67;15.00;;;;;;;12.66;100.00;99040.43;1793515;78;21051;-76
2022/09/27 06:28:41;;;;;;;17.77;15.55;;;;;;;12.70;100.00;99040.78;1800124;78;21039;-78
2022/09/27 06:31:10;;;;;;;17.10;15.32;;;;;;;12.72;100.00;99036.81;1804565;78;21024;-76
2022/09/27 06:33:40;;;;;;;21.65;15.50;;;;;;;12.76;100.00;99033.15;1805350;78;21008;-78
2022/09/27 06:36:07;;;;;;;17.10;14.65;;;;;;;12.80;100.00;99039.12;1807909;78;21012;-79
2022/09/27 06:38:35;;;;;;;16.02;14.33;;;;;;;12.48;100.00;98983.09;1777571;79;21810;-75
2022/09/27 06:41:12;;;;;;;15.45;13.95;;;;;;;12.85;100.00;99040.57;1767108;80;21294;-77
2022/09/27 06:43:41;;;;;;;21.23;15.60;;;;;;;12.87;100.00;99037.67;1724226;81;21526;-78
2022/09/27 06:46:15;;;;;;;18.55;16.75;;;;;;;12.84;100.00;99030.91;1738264;80;20997;-77
2022/09/27 06:48:52;;;;;;;18.55;15.90;;;;;;;12.80;100.00;99035.11;1763020;80;20975;-77
2022/09/27 06:51:19;;;;;;;20.35;15.80;;;;;;;12.80;100.00;99035.64;1769482;80;20994;-77
2022/09/27 06:53:45;;;;;;;21.85;16.73;;;;;;;12.80;100.00;99044.47;1734350;79;21592;-76
2022/09/27 06:56:12;;;;;;;20.35;16.20;;;;;;;12.83;100.00;99037.85;1761348;80;21025;-78
2022/09/27 07:01:44;;;;;;;30.95;19.75;;;;;;;12.84;100.00;99032.78;1737411;81;20990;-78
2022/09/27 07:04:22;;;;;;;31.42;20.57;;;;;;;12.82;100.00;99034.34;1759273;79;21033;-77
2022/09/27 07:06:56;;;;;;;34.35;21.15;;;;;;;12.85;100.00;99028.54;1745064;81;21014;-80
2022/09/27 07:09:24;;;;;;;36.53;21.05;;;;;;;12.85;100.00;99024.53;1788308;79;21002;-77
2022/09/27 07:11:54;;;;;;;30.35;20.43;;;;;;;12.87;100.00;99024.83;1747029;82;21020;-79
2022/09/27 07:14:20;;;;;;;37.98;19.20;;;;;;;12.90;100.00;99018.99;1750521;80;21000;-79
2022/09/27 07:16:49;;;;;;;36.40;19.95;;;;;;;12.93;100.00;99021.20;1769938;78;20977;-77
2022/09/27 07:19:17;;;;;;;31.55;20.45;;;;;;;12.95;100.00;99023.12;1757379;80;21051;-75
2022/09/27 07:21:44;;;;;;;37.23;21.93;;;;;;;12.98;100.00;99031.48;1746630;80;21140;-79
2022/09/27 07:24:10;;;;;;;38.48;23.57;;;;;;;13.00;100.00;99033.40;1721945;82;21550;-77
2022/09/27 07:26:38;;;;;;;34.40;22.37;;;;;;;13.02;100.00;99023.80;1723378;82;21047;-80
2022/09/27 07:29:06;;;;;;;34.73;22.15;;;;;;;13.02;100.00;99033.97;1752943;80;21074;-79
2022/09/27 07:31:32;;;;;;;40.00;22.90;;;;;;;13.04;100.00;99033.20;1756107;80;21088;-80
2022/09/27 07:33:59;;;;;;;35.95;24.20;;;;;;;13.05;100.00;99035.35;1736705;81;21082;-77
2022/09/27 07:36:25;;;;;;;42.53;24.37;;;;;;;13.09;100.00;99030.34;1721970;81;21062;-78
2022/09/27 07:38:52;;;;;;;36.48;24.23;;;;;;;13.12;100.00;99033.89;1757374;80;21546;-78
2022/09/27 07:41:19;;;;;;;38.23;24.35;;;;;;;13.13;100.00;99028.31;1754933;80;21572;-83
2022/09/27 07:43:45;;;;;;;;;;;;;;;13.15;100.00;99018.72;1763965;80;21009;-80
2022/09/27 07:46:13;;;;;;;41.30;23.98;;;;;;;13.19;100.00;99017.19;1756819;80;20225;-79
2022/09/27 07:48:48;;;;;;;41.42;23.67;;;;;;;13.18;100.00;99026.25;1763172;80;21042;-79
2022/09/27 07:51:19;;;;;;;42.08;25.10;;;;;;;13.19;100.00;99024.68;1758355;80;21038;-82
2022/09/27 07:53:47;;;;;;;38.70;24.27;;;;;;;13.19;100.00;99020.67;1733045;81;21098;-76
2022/09/27 07:56:32;;;;;;;42.90;25.75;;;;;;;13.23;100.00;99018.33;1754711;81;21032;-81
2022/09/27 07:58:59;;;;;;;42.40;25.27;;;;;;;13.27;100.00;99012.78;1756415;80;21018;-79
2022/09/27 08:01:25;;;;;;;41.20;25.02;;;;;;;13.23;100.00;98999.07;1765036;80;21544;-80
2022/09/27 08:03:52;;;;;;;36.58;24.70;;;;;;;13.31;100.00;98999.77;1728328;81;21035;-77
2022/09/27 08:06:20;;;;;;;38.28;24.75;;;;;;;13.31;100.00;99000.58;1749785;81;21483;-77
2022/09/27 08:08:48;;;;;;;37.60;23.87;;;;;;;13.34;100.00;99001.45;1776569;79;21112;-78
2022/09/27 08:11:17;;;;;;;40.83;25.10;;;;;;;13.37;100.00;98996.97;1774119;79;21069;-79
2022/09/27 08:13:46;;;;;;;46.45;25.17;;;;;;;13.42;100.00;99001.06;1773524;79;22097;-79
2022/09/27 08:16:13;;;;;;;38.42;24.15;;;;;;;13.46;100.00;99008.63;1774811;79;21106;-79
2022/09/27 08:18:44;;;;;;;39.98;24.85;;;;;;;13.50;100.00;99002.53;1768317;79;21025;-77
2022/09/27 08:21:14;;;;;;;38.65;24.98;;;;;;;13.52;100.00;99007.12;1772239;79;20993;-82
2022/09/27 08:23:45;;;;;;;35.48;24.85;;;;;;;13.53;100.00;99005.27;1770461;79;21589;-79
2022/09/27 08:26:13;;;;;;;37.88;25.30;;;;;;;13.55;100.00;99010.66;1730787;81;21017;-78
2022/09/27 08:28:47;;;;;;;38.33;24.87;;;;;;;13.53;100.00;99010.09;1756489;81;20961;-78
2022/09/27 08:31:18;;;;;;;37.03;25.32;;;;;;;13.53;100.00;99013.30;1774938;79;21110;-76
2022/09/27 08:33:50;;;;;;;32.05;23.50;;;;;;;13.53;100.00;99005.27;1770380;79;20999;-78
2022/09/27 08:36:16;;;;;;;32.75;23.00;;;;;;;13.56;100.00;99007.45;1777567;79;21019;-77
2022/09/27 08:38:43;;;;;;;41.00;25.48;;;;;;;13.58;100.00;99008.02;1746389;80;21033;-79
2022/09/27 08:41:21;;;;;;;43.28;26.40;;;;;;;13.62;100.00;99003.84;1731628;81;21496;-80
2022/09/27 08:44:34;;;;;;;40.23;26.52;;;;;;;13.66;100.00;99008.19;1767380;80;21517;-78
2022/09/27 08:47:19;;;;;;;54.30;37.90;;;;;;;13.68;100.00;99001.52;1758975;80;20997;-79
2022/09/27 08:49:55;;;;;;;43.90;27.40;;;;;;;13.70;100.00;98999.42;1767523;80;21009;-78
2022/09/27 08:52:30;;;;;;;40.23;29.20;;;;;;;13.73;100.00;99001.63;1750870;80;21017;-79
2022/09/27 08:55:02;;;;;;;36.00;26.95;;;;;;;13.77;100.00;99004.63;1736899;80;21640;-79
2022/09/27 08:57:29;;;;;;;38.28;26.52;;;;;;;13.80;100.00;99005.47;1763172;80;21021;-82
2022/09/27 09:00:07;;;;;;;34.88;24.20;;;;;;;13.83;100.00;99003.66;1771679;80;21035;-78
2022/09/27 09:02:35;;;;;;;34.58;25.80;;;;;;;13.88;100.00;98996.22;1769377;80;20978;-79
2022/09/27 09:05:10;;;;;;;33.25;25.57;;;;;;;13.90;100.00;99002.14;1773731;80;21580;-77
2022/09/27 09:08:12;;;;;;;36.53;24.80;;;;;;;13.94;100.00;98998.75;1742284;80;21021;-79
2022/09/27 09:14:19;;;;;;;34.85;24.55;;;;;;;13.98;100.00;98992.39;1782187;80;21001;-79
2022/09/27 09:16:59;;;;;;;35.25;25.57;;;;;;;13.96;100.00;98986.46;1771648;80;21169;-80
2022/09/27 09:20:01;;;;;;;36.05;25.27;;;;;;;13.93;100.00;98985.59;1766990;79;21070;-78
2022/09/27 09:23:15;;;;;;;29.40;22.95;;;;;;;13.95;100.00;98988.30;1769304;79;21070;-80
2022/09/27 09:26:06;;;;;;;33.42;24.47;;;;;;;13.95;100.00;98984.83;1770010;80;20989;-80
2022/09/27 09:29:13;;;;;;;54.42;37.60;;;;;;;13.98;100.00;98986.49;1762934;79;21041;-80
2022/09/27 09:32:03;;;;;;;53.60;35.00;;;;;;;14.00;100.00;98985.72;1761926;79;21040;-81
2022/09/27 09:34:37;;;;;;;49.38;35.68;;;;;;;13.99;100.00;98984.62;1759921;79;21082;-78
2022/09/27 09:37:11;;;;;;;55.60;36.60;;;;;;;13.98;100.00;98989.17;1764540;80;21012;-80
2022/09/27 09:39:46;;;;;;;64.75;38.50;;;;;;;13.97;100.00;98988.88;1763919;79;21052;-81
2022/09/27 09:42:28;;;;;;;57.25;37.58;;;;;;;13.99;100.00;98989.47;1764720;80;21008;-79
2022/09/27 09:45:15;;;;;;;55.17;36.20;;;;;;;14.04;100.00;98991.41;1775789;79;21525;-80
2022/09/27 09:47:56;;;;;;;60.80;37.25;;;;;;;14.10;100.00;98987.74;1764855;80;21042;-78
2022/09/27 09:50:31;;;;;;;53.05;33.80;;;;;;;14.14;100.00;98980.03;1759393;79;20989;-79
2022/09/27 09:53:04;;;;;;;45.20;32.98;;;;;;;14.16;100.00;98987.29;1722966;81;21692;-78
2022/09/27 09:55:34;;;;;;;49.85;32.60;;;;;;;14.18;100.00;98985.17;1722142;81;21060;-78
2022/09/27 09:58:06;;;;;;;45.50;33.33;;;;;;;14.20;100.00;98987.91;1771672;79;21053;-78
2022/09/27 10:00:34;;;;;;;50.15;33.45;;;;;;;14.21;100.00;98989.52;1767263;79;21546;-77
2022/09/27 10:03:02;;;;;;;;;;;;;;;14.21;100.00;98992.20;1758406;80;21243;-79
2022/09/27 10:05:30;;;;;;;46.55;28.57;;;;;;;14.22;100.00;98988.98;1755886;80;20138;-78
2022/09/27 10:08:03;;;;;;;39.13;28.15;;;;;;;14.17;100.00;98984.38;1754500;81;21433;-78
2022/09/27 10:10:30;;;;;;;40.38;29.60;;;;;;;14.18;100.00;98977.97;1743362;80;21132;-79
2022/09/27 10:13:13;;;;;;;43.08;29.42;;;;;;;14.19;100.00;98979.58;1658069;84;21108;-79
2022/09/27 10:15:40;;;;;;;51.77;33.73;;;;;;;14.18;100.00;98976.62;1710943;82;21035;-79
2022/09/27 10:18:14;;;;;;;38.95;28.95;;;;;;;14.20;100.00;98979.87;1729419;81;21599;-76
2022/09/27 10:20:52;;;;;;;47.53;32.53;;;;;;;14.22;100.00;98979.60;1752757;80;21612;-79
2022/09/27 10:23:23;;;;;;;57.62;33.23;;;;;;;14.23;100.00;98968.38;1734368;81;21491;-78
2022/09/27 10:26:10;;;;;;;51.92;34.70;;;;;;;14.21;100.00;98965.94;1663635;84;21314;-80
2022/09/27 10:28:43;;;;;;;52.38;34.55;;;;;;;14.18;100.00;98968.59;1694777;82;21072;-79
2022/09/27 10:31:16;;;;;;;46.83;33.08;;;;;;;14.16;100.00;98959.95;1687248;81;21133;-76
2022/09/27 10:33:58;;;;;;;48.38;33.90;;;;;;;14.18;100.00;98956.53;1751423;79;22094;-76
2022/09/27 10:36:28;;;;;;;48.83;33.02;;;;;;;14.14;100.00;98964.75;1760930;79;21143;-79
2022/09/27 10:38:59;;;;;;;47.43;30.32;;;;;;;14.10;100.00;98968.98;1757129;79;21004;-78
2022/09/27 10:41:35;;;;;;;48.87;32.90;;;;;;;14.12;100.00;98970.89;1769834;79;21175;-79
2022/09/27 10:44:18;;;;;;;50.65;34.15;;;;;;;14.16;100.00;98966.66;1735017;79;21049;-76
2022/09/27 10:46:57;;;;;;;45.50;31.00;;;;;;;14.19;100.00;98954.12;1754409;80;21631;-76
2022/09/27 10:49:41;;;;;;;50.10;33.55;;;;;;;14.22;100.00;98955.48;1744421;80;21065;-78
2022/09/27 10:52:19;;;;;;;51.25;33.75;;;;;;;14.19;100.00;98952.78;1736980;81;21013;-78
2022/09/27 10:55:19;;;;;;;48.25;34.18;;;;;;;14.19;100.00;98960.81;1747957;79;21068;-80
2022/09/27 10:57:51;;;;;;;55.40;35.88;;;;;;;14.16;100.00;98961.30;1748921;80;21048;-76
2022/09/27 11:00:34;;;;;;;49.05;35.00;;;;;;;14.15;100.00;98965.05;1765256;80;21720;-76
2022/09/27 11:03:14;;;;;;;49.38;34.43;;;;;;;14.16;100.00;98965.31;1749923;80;21497;-78
2022/09/27 11:05:42;;;;;;;49.60;34.23;;;;;;;14.16;100.00;98969.34;1796636;78;21108;-79
2022/09/27 11:08:24;;;;;;;52.75;35.52;;;;;;;14.17;100.00;98962.13;1802961;78;21005;-79
2022/09/27 11:11:05;;;;;;;53.20;34.73;;;;;;;14.18;100.00;98959.72;1730665;81;21038;-79
2022/09/27 11:13:34;;;;;;;54.77;35.60;;;;;;;14.17;100.00;98948.20;1754631;79;21103;-77
2022/09/27 11:16:29;;;;;;;55.05;36.75;;;;;;;14.16;100.00;98938.52;1756983;79;21064;-79
2022/09/27 11:19:14;;;;;;;53.80;35.92;;;;;;;14.15;100.00;98931.55;1755731;79;21107;-78
2022/09/27 11:22:27;;;;;;;51.63;37.13;;;;;;;14.15;100.00;98933.43;1752861;79;21040;-77
2022/09/27 11:25:17;;;;;;;56.63;35.33;;;;;;;14.17;100.00;98938.81;1752411;77;21676;-78
2022/09/27 11:27:57;;;;;;;56.70;35.45;;;;;;;14.16;100.00;98927.80;1737835;81;21006;-77
2022/09/27 11:30:49;;;;;;;51.02;35.88;;;;;;;14.14;100.00;98917.86;1712172;82;21014;-81
2022/09/27 11:33:50;;;;;;;;;;;;;;;14.11;100.00;98916.20;1721522;81;21058;-76
2022/09/27 11:36:34;;;;;;;56.15;34.48;;;;;;;14.12;100.00;98913.81;1698043;82;20139;-77
2022/09/27 11:39:24;;;;;;;52.55;35.28;;;;;;;14.10;100.00;98904.68;1714210;81;21034;-79
2022/09/27 11:42:32;;;;;;;50.73;34.98;;;;;;;14.16;100.00;98902.88;1715122;81;21007;-79
2022/09/27 11:45:19;;;;;;;58.57;36.67;;;;;;;14.23;100.00;98921.48;1731774;79;21561;-77
2022/09/27 11:48:07;;;;;;;51.00;35.85;;;;;;;14.29;100.00;98927.19;1768006;80;21006;-77
2022/09/27 11:50:46;;;;;;;54.13;35.50;;;;;;;14.34;100.00;98921.91;1782161;80;21280;-79
2022/09/27 11:53:33;;;;;;;51.98;35.20;;;;;;;14.39;100.00;98916.59;1793560;78;21096;-79
2022/09/27 11:56:25;;;;;;;53.68;33.23;;;;;;;14.47;100.00;98918.86;1769462;78;21056;-78
2022/09/27 11:59:16;;;;;;;51.18;34.92;;;;;;;14.55;100.00;98921.63;1798907;78;21019;-77